Alexis, North Carolina
Current Conditions -  °F | °C
As of 12:15 AM on Saturday 25 Oct 2014 (Local Time) from KIPJ Reporting Station
Clear Clear  
Wind Chill:   Ceiling: Unl
Heat Index:   Visibility: 10mi
Dew Point:   Wind: 0mph
Humidity: 98%   Direction: NA
Pressure: 30.02"   Gusts: NA
Location:  35.4°N, 81.12°W
Report Text: KIPJ 250415Z AUTO 00000KT 10SM CLR 06/05 A3002 RMK AO2 T00550052
Loading
Personal Weather Stations






























Interactive Weather Map
Tropical Storm Tracking
New forecast layout! Learn more

10-Day Weather Forecast

Advertisements
Track Severe Weather on mobile